Timeline UpdatesTrip UpdatesNews PostsPvt PostsTravel TipsAdmin PostsConv PostsFollowed PostsChat RequestsBlog PostsPNR Posts

Disclaimer
Search
 
 
Thu Apr 24, 2014 09:38:07 ISTHomeTrainsΣChainsAtlasPNRForumGalleryNewsFAQTripsMembersLoginFeedback
No Recent News for this Train
Other Trains in the News **new
Latest...
Will be diverted via Malkhedi-Agasod chord line avoiding Bina station from 25th march 2014
Thu Mar 27, 2014 (03:33PM)
⇐ Return Journey: Train# 18477

18478/Kalinga Utkal Express

Mar 27 (3:32PM)
Change Departure Station:
Change Arrival Station:
Post a Train Travel TipPost a Train Travel Tip **new
Post a Comment/Question/Picture/VideoPost a Comment/Question/Picture/Video
Pantry/Catering
✓ Pantry Car Avbl
✓ Catering Avbl
RSA - Rake Sharing
Rake/Coach Composition
Coach Composition:ENG-SLR-GS-S1-S2-S3-S4-S5-S6-S7-S8-S9-PC-S10-S11-S12-B1-B2-A1-GS-GS-SLR. By DJ 132 blog Entry# 701076
Loco
HW-NZM: LDH WDM-3A NZM-PURI: ET WAM-4 / TKD WAP-7
News    PNR    Forum    Time-Table    Availability    Fare Chart    Map    Arr/Dep History    Trips    Gallery    ΣChains    X/O    Timeline    
Travel Time: 37h 58m    57 halts    Distance: 1850 km    Avg Speed: 48 km/hr
Type: Mail/Express
Zone: ECoR/East Coast
Departs @ 17:02 (Avg 13m late)
Platform# ???
SMTWTFS
Morena/MRA 
Arrives @ 07:00 +2 nights (Avg 3m late)
Platform# 1
SMTWTFS
Puri/PURI 

57 halts. 255 intermediate Stations between Morena and Puri

Show ALL intermediate Stations  Show Old Time-Table

#CodeStation NameX/OArrivesAvgDepartsAvgHaltPFDay#KmSpeedElevZoneAddress
1HWHaridwar Junction (9)  -06:00+021-521.860294mNRHaridwar, Uttarakhand
2RKRoorkee (3)X  06:45+406:47+72m31-477.126264mNRRoorkee - 247667, Uttarakhand
3TPZTapri Junction (2)  08:02+308:04+42m11-445.069274mNRTapri -Saharanpur, Uttar Pradesh
4DBDDeoband (2)X  08:28+408:30+42m11-417.341258mNRSaharanpur, Uttar Pradesh
5MOZMuzaffarnagar (3)X  09:05+509:07+52m11-393.360247mNRMuzaffarNagar, Uttar Pradesh
6MUTMeerut Cantt. (2)  09:58+510:00+52m11-342.129230mNRMeerut, Uttar Pradesh
7MTCMeerut City Junction (6)  10:09+410:12+53m21-337.764229mNRMeerut, Uttar Pradesh
8GZBGhaziabad Junction (6)XO  10:56+610:58+62m31-290.533217mNRGhaziabad, Uttar Pradesh
9NZMDelhi Hazrat Nizamuddin (7)X11:40+612:05+625m21-267.166209mNRNizamuddin East/Sarai KaleKhan Bus Terminal, Delhi NCT
10FDBFaridabad (4)X  12:24+612:26+62m31-246.357206mNRFaridabad, Haryana
11KSVKosi Kalan (3)  13:41+613:43+72m21-174.678189mNCRKosi Kalan, Uttar Pradesh
12MTJMathura Junction (10)X  14:15+1014:20+105m11-133.151179mNCRMathura, Uttar Pradesh
13RKMRaja Ki Mandi (4)X  15:18+1215:20+122m21-83.58170mNCRAgra, Uttar Pradesh
14AGCAgra Cantt. (6)X  15:50+1015:58+108m41-79.485174mNCRAgra, Uttar Pradesh
15DHODholpur Junction (3)X  16:35+1216:37+122m21-26.870177mNCRDholpur, Rajasthan
16MRA»Morena (3)»X  17:00+1317:02+132m--10.075176mNCRMorena, Madhya Pradesh
17GWLGwalior Junction (4)X  17:33+1417:38+145m1138.677214mNCRGwalior, Madhya Pradesh
18DBADabra (3)  18:11+1718:13+182m3180.970204mNCRDabra(District-Gwalior), Madhya Pradesh
19DAADatia (2)X  18:39+1918:41+192m--1111.241264mNCRDatia, Madhya Pradesh
20JHSJhansi Junction (7)X  19:18+1619:26+198m31136.361259mNCRJhansi, Uttar Pradesh
21BABBabina (3)X  19:51+2019:53+202m11161.886285mNCRBabina, Uttar Pradesh
22LARLalitpur (3)  20:38+2320:40+232m11226.642373mNCRLalitpur, Uttar Pradesh
23MAKRMalkheri Junction (2)X  22:10+3122:12+312m--1289.737421mWCRGuna, Madhya Pradesh
24KYEKhurai (5)  22:40+1722:42+182m11307.055439mWCRKhurai, Madhya Pradesh
25SGOSaugor (2)  23:40+1723:45+175m11359.858519mWCRMP 470001Madhya pradesh, Madhya Pradesh
26PHAPathariaX  00:38+1500:40+162m12410.736382mWCRState Highway 14, Madhya Pradesh
27DMODamoh (2)X  01:23+1301:25+132m--2436.942365mWCRDamoh, Madhya Pradesh
28KMZKatni Murwara  04:00+504:10+510m22546.045385mWCRMP 483504 ?, Madhya Pradesh
29CHDChandia Road (1)  05:03+705:05+72m12585.860406mSECRNational Highway 78, Madhya Pradesh
30UMRUmaria (3)  05:24+705:29+75m--2604.880469mSECRUmaria, Madhya Pradesh
31NRZBNowrozabad  05:46+705:48+72m--2627.454458mSECRNational Highway 78, Madhya Pradesh
32BRSBirsinghpur  05:56+805:58+82m--2634.743461mSECRPali, Madhya Pradesh
33SDLShahdol  06:50+506:55+55m--2672.069466mSECR, Madhya Pradesh
34BUHBurhar  07:12+607:14+62m--2691.558494mSECRBurhar, Madhya Pradesh
35AALAmlai  07:23+607:25+62m--2700.238495mSECRAnuppur, Madhya Pradesh
36APRAnuppur Junction (3)  07:45+507:50+55m--2712.983487mSECRAnuppur, Madhya Pradesh
37PNDPendra Road  08:27+908:32+95m--2764.156620mSECRBilaspur district, Chhattisgarh
38BIGBelgahna  09:30+1009:32+102m--2817.879327mSECRBilaspur, Chhattisgarh
39KGBKargi Road  09:44+1009:46+102m72833.628327mSECRBilaspur, Chhattisgarh
40BSPBilaspur Junction (8)X  10:55+411:15+620m12865.668271mSECRBilaspur, Chhattisgarh
41AKTAkaltara (4)  11:39+611:41+62m--2892.953284mSECRDist. Janjgir Champa, Chhattisgarh
42NIANaila  11:58+612:00+62m--2907.843273mSECRJanjgir, Chhattisgarh
43CPHChampa Junction (3)  12:15+512:20+55m--2918.672264mSECRNational Highway 200 (07819-245767), Chhattisgarh
44BUABaradwar  12:33+512:35+52m--2934.281256mSECRJanjgir-Champa, Chhattisgarh
45SKTSakti (4)  12:46+612:48+62m--2949.077237mSECRJanjgir-Champa, Chhattisgarh
46KHSKharsiaX  13:00+613:02+62m--2964.473259mSECRNational Highway 200, Chhattisgarh
47RIGRaigarh (3)  13:30+713:35+75m12998.493220mSECRRaigarh, Chhattisgarh
48BPHBelpaharX  14:08+814:10+82m721049.441235mSECRBelpahar, Odisha
49BRJNBrajrajnagar  14:23+714:25+72m--21058.416212mSECRBrajrajnagar, Odisha
50JSGJharsuguda Junction (5)X  15:10+415:20+410m--21070.084236mSERJharsuguda, Odisha
51BMBBamra (3)  15:46+615:48+62m--21106.583259mSERBamra PH : 06642-229268, Odisha
52GPRaj Gangpur (3)  16:13+716:15+62m221141.251237mSERRaj Ganpur, Odisha
53ROURourkela Junction (5)  16:50+617:05+615m421171.077198mSERRourkela, Odisha
54BZRBisra17:16+917:16+100m--21185.181224mSERSundargarh, Odisha
55MOUManoharpurX  17:35+917:37+82m--21210.859228mSERManoharpur, Jharkhand
56GOLGoilkera  18:05+918:07+82m--21238.353333mSERGoilkera, Jharkhand
57CKPChakradharpur (3)X  18:45+618:55+610m--21272.080235mSERChakradharpur (West Singhbhum), Jharkhand
58RKSNRajkharsawan JunctionX  19:10+819:12+72m--21292.157189mSERWest Singhbhum district, Jharkhand
59SINISini Junction  19:28+719:30+62m--21307.329182mSERNational Highway 33, Jharkhand
60TATATatanagar Junction (5)  20:25+320:35+310m421334.366164mSER91-657-2423026, Jharkhand
61GTSGhatsila (3)  21:08+621:10+72m--21370.580103mSEREast Singhbhum, Jharkhand
62CKUChakuliaX  21:33+621:35+72m--21401.046126mSERChakulia, Jharkhand
63HIJHijli (2)  23:03+823:05+92m--21468.86848mSERdist - paschim medinipur, West Bengal
64JERJaleswar (4)X  00:02+600:04+62m--31533.66513mSERJaleswar, Odisha
65BTSBasta (3)  00:22+600:24+62m--31553.06516mSERBasta, Odisha
66BLSBalasore (4)X  00:50+601:00+510m231581.08719mSERBalasore, Odisha
67SOROSoro  01:23+501:25+52m--31614.54414mSERSoro, Odisha
68BHCBhadrak (4)  02:05+502:07+52m--31643.59723mECoRBhadrak, Odisha
69JJKRJajpur Keonjhar Road (4)X  02:34+602:36+62m--31687.17336mECoRJajpur, Odisha
70CTCCuttack (5)  03:35+803:40+85m--31759.14828mECoRCuttack ph.no 0671-2610460, Odisha
71BBSBhubaneswar (4)X  04:15+904:20+95m431787.02340mECoRBhubaneshwar ph.no. 0674-2532233, Odisha
72KURKhurda Road Junction (7)  05:10+505:15+55m--31805.95325mECoRKhordha, Odisha
73SILSakhi Gopal (3)X  05:46+605:48+82m--31833.41410mECoRPuri, Odisha
74PURI•Puri (5)•  07:00+3-131849.8-12mECoRPuri, Odisha
Scroll to Top
Scroll to Bottom